Time;durP1;ratioP1;P1;durP2;ratioP2;P2;SDS_P1;SDS_P2;PMS_P1;PMS_P2;Temp;Humidity;BMP_temperature;BMP_pressure;BME280_temperature;BME280_humidity;BME280_pressure;Samples;Min_cycle;Max_cycle;Signal;HPM_P1;HPM_P2
2023/05/06 00:01:41;;;;;;;6.20;5.60;;;;;;;14.41;100.00;100731.94;5040923;28;20037;-70
2023/05/06 00:04:07;;;;;;;7.20;6.28;;;;;;;14.37;100.00;100727.16;5062744;28;20123;-70
2023/05/06 00:06:33;;;;;;;7.05;5.97;;;;;;;14.39;100.00;100726.00;5056903;28;20031;-70
2023/05/06 00:08:59;;;;;;;7.03;5.95;;;;;;;14.39;100.00;100725.19;5058797;28;20041;-70
2023/05/06 00:11:26;;;;;;;7.55;5.88;;;;;;;14.39;100.00;100735.69;5064119;28;20034;-70
2023/05/06 00:13:52;;;;;;;6.63;5.85;;;;;;;14.40;100.00;100727.66;5051765;28;20510;-70
2023/05/06 00:16:18;;;;;;;10.98;5.93;;;;;;;14.41;100.00;100729.31;5070154;28;20024;-70
2023/05/06 00:18:44;;;;;;;8.70;6.13;;;;;;;14.38;100.00;100728.78;5070207;28;20504;-71
2023/05/06 00:21:10;;;;;;;6.18;5.53;;;;;;;14.35;100.00;100731.75;5073098;28;20033;-69
2023/05/06 00:23:37;;;;;;;6.32;5.32;;;;;;;14.35;100.00;100734.38;5063476;28;20481;-70
2023/05/06 00:26:04;;;;;;;6.85;5.43;;;;;;;14.31;100.00;100739.09;5069667;28;20119;-70
2023/05/06 00:28:29;;;;;;;8.48;6.50;;;;;;;14.26;100.00;100730.91;5066542;28;20062;-70
2023/05/06 00:30:55;;;;;;;11.70;6.53;;;;;;;14.18;100.00;100734.34;5064887;28;20029;-69
2023/05/06 00:33:21;;;;;;;9.43;6.45;;;;;;;14.11;100.00;100738.59;5067537;28;20123;-70
2023/05/06 00:35:47;;;;;;;9.35;6.38;;;;;;;14.03;100.00;100740.38;5074558;28;20123;-70
2023/05/06 00:38:18;;;;;;;9.50;6.25;;;;;;;14.06;100.00;100730.41;5068738;28;20032;-70
2023/05/06 00:40:44;;;;;;;7.50;6.78;;;;;;;14.12;100.00;100727.16;5071510;28;20119;-69
2023/05/06 00:43:10;;;;;;;7.97;6.40;;;;;;;14.14;100.00;100733.03;5046463;28;20036;-70
2023/05/06 00:45:37;;;;;;;9.20;6.80;;;;;;;14.18;100.00;100733.50;5068650;28;20364;-70
2023/05/06 00:48:05;;;;;;;11.98;6.90;;;;;;;14.21;100.00;100727.94;5065494;28;20059;-70
2023/05/06 00:50:33;;;;;;;7.35;6.60;;;;;;;14.24;100.00;100722.38;5066071;28;20037;-70
2023/05/06 00:53:01;;;;;;;7.80;6.75;;;;;;;14.27;100.00;100727.31;5052918;28;20040;-70
2023/05/06 00:55:26;;;;;;;9.07;7.05;;;;;;;14.28;100.00;100719.28;5046349;28;20048;-70
2023/05/06 00:57:53;;;;;;;9.93;7.13;;;;;;;14.28;100.00;100719.28;5047356;28;20128;-70
2023/05/06 01:00:19;;;;;;;9.95;7.32;;;;;;;14.32;100.00;100714.53;5046900;28;20037;-70
2023/05/06 01:02:47;;;;;;;10.38;7.45;;;;;;;14.35;100.00;100718.63;5051870;28;20024;-70
2023/05/06 01:05:16;;;;;;;10.90;7.32;;;;;;;14.34;100.00;100711.75;5045912;28;20072;-70
2023/05/06 01:07:59;;;;;;;9.27;6.88;;;;;;;14.28;100.00;100716.66;5043812;28;20053;-70
2023/05/06 01:10:46;;;;;;;7.88;6.53;;;;;;;14.12;100.00;100721.91;5043172;28;20119;-70
2023/05/06 01:13:50;;;;;;;7.78;6.93;;;;;;;13.98;100.00;100717.28;5031854;28;20033;-70
2023/05/06 01:16:19;;;;;;;8.05;7.30;;;;;;;13.81;100.00;100716.41;5043284;28;20463;-71
2023/05/06 01:18:48;;;;;;;8.20;7.40;;;;;;;13.78;100.00;100716.72;5043843;28;20033;-70
2023/05/06 01:21:14;;;;;;;10.23;7.60;;;;;;;13.70;100.00;100721.13;5045768;28;20048;-71
2023/05/06 01:23:56;;;;;;;9.52;7.28;;;;;;;13.56;100.00;100722.56;5047037;28;20029;-71
2023/05/06 01:26:23;;;;;;;8.85;7.60;;;;;;;13.48;100.00;100723.34;5045640;28;20033;-70
2023/05/06 01:28:49;;;;;;;8.88;7.35;;;;;;;13.51;100.00;100712.56;5049191;28;20021;-70
2023/05/06 01:31:28;;;;;;;12.27;7.97;;;;;;;13.59;100.00;100711.78;5041105;28;20046;-70
2023/05/06 01:34:17;;;;;;;9.65;8.75;;;;;;;13.60;100.00;100709.00;5048878;28;20041;-70
2023/05/06 01:37:05;;;;;;;11.00;8.48;;;;;;;13.63;100.00;100713.09;5051316;28;20033;-70
2023/05/06 01:39:33;;;;;;;11.25;8.90;;;;;;;13.78;100.00;100705.44;5048474;28;20473;-71
2023/05/06 01:42:03;;;;;;;10.45;8.77;;;;;;;13.93;100.00;100702.03;5051219;28;20033;-70
2023/05/06 01:44:34;;;;;;;11.55;7.93;;;;;;;14.00;100.00;100702.22;5046450;28;20033;-70
2023/05/06 01:47:02;;;;;;;9.80;7.95;;;;;;;14.00;100.00;100694.38;5048973;28;20036;-70
2023/05/06 01:49:29;;;;;;;8.90;7.90;;;;;;;13.90;100.00;100696.31;5050818;28;20400;-71
2023/05/06 01:51:56;;;;;;;8.85;7.07;;;;;;;13.72;100.00;100691.16;5048964;28;20115;-71
2023/05/06 01:54:23;;;;;;;9.50;7.53;;;;;;;13.59;100.00;100696.88;5044042;28;20041;-71
2023/05/06 01:56:48;;;;;;;8.10;7.30;;;;;;;13.47;100.00;100699.94;5062674;28;20109;-71
2023/05/06 01:59:14;;;;;;;7.68;6.95;;;;;;;13.34;100.00;100697.75;5068439;28;20028;-71
2023/05/06 02:01:41;;;;;;;9.80;8.20;;;;;;;13.36;100.00;100695.78;5049862;28;20039;-70
2023/05/06 02:04:06;;;;;;;12.63;8.32;;;;;;;13.49;100.00;100696.19;5068268;28;20540;-71
2023/05/06 02:06:32;;;;;;;9.70;8.32;;;;;;;13.50;100.00;100691.78;5066860;28;20070;-71
2023/05/06 02:08:58;;;;;;;11.02;7.60;;;;;;;13.43;100.00;100690.75;5068825;28;20024;-71
2023/05/06 02:11:23;;;;;;;11.40;8.23;;;;;;;13.36;100.00;100693.19;5049138;28;20029;-70
2023/05/06 02:13:50;;;;;;;8.57;7.70;;;;;;;13.35;100.00;100688.91;5067586;28;20390;-70
2023/05/06 02:16:17;;;;;;;9.50;7.60;;;;;;;13.30;100.00;100691.19;5073780;28;20028;-71
2023/05/06 02:18:43;;;;;;;8.60;7.65;;;;;;;13.31;100.00;100687.59;5068969;28;20036;-70
2023/05/06 02:21:09;;;;;;;11.18;7.60;;;;;;;13.25;100.00;100681.19;5074343;28;20032;-70
2023/05/06 02:23:35;;;;;;;7.05;6.40;;;;;;;13.25;100.00;100680.38;5061800;28;20095;-71
2023/05/06 02:26:01;;;;;;;8.10;6.68;;;;;;;13.27;100.00;100679.22;5064623;28;20044;-71
2023/05/06 02:28:27;;;;;;;8.35;7.63;;;;;;;13.24;100.00;100678.72;5068811;28;20056;-71
2023/05/06 02:30:56;;;;;;;10.60;7.60;;;;;;;13.19;100.00;100667.94;5070581;28;20115;-71
2023/05/06 02:33:23;;;;;;;10.35;7.75;;;;;;;13.10;100.00;100680.13;5049133;28;20078;-71
2023/05/06 02:35:49;;;;;;;9.30;8.32;;;;;;;13.03;100.00;100675.66;5068279;28;20765;-71
2023/05/06 02:38:15;;;;;;;13.63;9.10;;;;;;;13.23;100.00;100675.28;5070308;28;20059;-70
2023/05/06 02:40:41;;;;;;;10.88;9.30;;;;;;;13.54;100.00;100662.50;5071131;28;20067;-70
2023/05/06 02:43:07;;;;;;;11.43;9.13;;;;;;;13.79;100.00;100655.50;5068888;28;20477;-71
2023/05/06 02:45:34;;;;;;;13.13;9.50;;;;;;;13.89;100.00;100655.38;5074786;28;20111;-70
2023/05/06 02:48:01;;;;;;;11.48;9.10;;;;;;;13.94;100.00;100653.91;5073061;28;20032;-71
2023/05/06 02:50:28;;;;;;;11.75;9.80;;;;;;;13.99;100.00;100655.22;5072987;28;20024;-70
2023/05/06 02:52:54;;;;;;;10.18;9.15;;;;;;;14.00;100.00;100646.41;5072537;28;20044;-70
2023/05/06 02:55:22;;;;;;;14.55;8.85;;;;;;;14.03;100.00;100646.06;5068139;28;20062;-71
2023/05/06 02:57:47;;;;;;;11.43;8.68;;;;;;;14.01;100.00;100648.84;5070572;28;20032;-70
2023/05/06 03:00:15;;;;;;;9.80;8.80;;;;;;;14.01;100.00;100645.41;5071392;28;20105;-71
2023/05/06 03:02:41;;;;;;;14.65;8.77;;;;;;;13.88;100.00;100651.13;5071223;28;20029;-71
2023/05/06 03:05:08;;;;;;;9.00;7.80;;;;;;;13.68;100.00;100647.16;5073188;28;20476;-70
2023/05/06 03:07:35;;;;;;;12.60;8.77;;;;;;;13.66;100.00;100646.50;5065098;28;20033;-71
2023/05/06 03:10:01;;;;;;;13.07;8.60;;;;;;;13.66;100.00;100649.94;5033000;28;20507;-71
2023/05/06 03:12:27;;;;;;;10.70;9.43;;;;;;;13.74;100.00;100641.25;5067461;28;20032;-71
2023/05/06 03:14:52;;;;;;;8.35;7.55;;;;;;;13.73;100.00;100637.00;5072280;28;20040;-71
2023/05/06 03:17:18;;;;;;;11.90;8.93;;;;;;;13.53;100.00;100633.88;5069877;28;20051;-71
2023/05/06 03:19:43;;;;;;;11.35;9.60;;;;;;;13.58;100.00;100635.03;5070985;28;20029;-70
2023/05/06 03:22:08;;;;;;;13.25;9.98;;;;;;;13.76;100.00;100626.22;5066051;28;20044;-71
2023/05/06 03:24:34;;;;;;;12.10;9.38;;;;;;;13.88;100.00;100630.97;5067977;28;20034;-71
2023/05/06 03:27:00;;;;;;;13.07;10.00;;;;;;;13.93;100.00;100631.31;5072030;28;20115;-70
2023/05/06 03:29:26;;;;;;;11.15;9.27;;;;;;;13.95;100.00;100631.97;5061689;28;20093;-71
2023/05/06 03:31:55;;;;;;;11.77;9.45;;;;;;;13.99;100.00;100632.47;5068518;28;20095;-71
2023/05/06 03:34:23;;;;;;;11.05;9.52;;;;;;;14.03;100.00;100639.03;5060537;28;20034;-71
2023/05/06 03:36:48;;;;;;;12.38;9.38;;;;;;;14.06;100.00;100633.47;5069189;28;20479;-70
2023/05/06 03:39:14;;;;;;;10.35;9.25;;;;;;;14.02;100.00;100633.94;5044372;28;20041;-71
2023/05/06 03:41:40;;;;;;;13.20;8.80;;;;;;;14.00;100.00;100634.13;5067232;28;20117;-71
2023/05/06 03:44:05;;;;;;;10.40;9.23;;;;;;;14.02;100.00;100628.72;5071286;28;20119;-70
2023/05/06 03:46:31;;;;;;;11.07;9.88;;;;;;;14.00;100.00;100631.50;5073969;28;20051;-71
2023/05/06 03:48:59;;;;;;;14.18;9.00;;;;;;;13.97;100.00;100631.81;5069274;28;20055;-71
2023/05/06 03:51:27;;;;;;;11.63;8.93;;;;;;;13.93;100.00;100633.94;5065207;28;20400;-71
2023/05/06 03:53:52;;;;;;;11.57;10.10;;;;;;;13.91;100.00;100640.31;5066417;28;20074;-71
2023/05/06 03:56:20;;;;;;;10.23;8.55;;;;;;;13.93;100.00;100635.75;5069935;28;20041;-71
2023/05/06 03:58:47;;;;;;;11.60;8.93;;;;;;;13.93;100.00;100636.56;5063229;28;20467;-71
2023/05/06 04:01:13;;;;;;;15.77;9.70;;;;;;;13.89;100.00;100640.47;5066475;28;20436;-70
2023/05/06 04:03:39;;;;;;;10.13;9.05;;;;;;;13.81;100.00;100637.84;5064502;28;20130;-70
2023/05/06 04:06:06;;;;;;;10.75;9.02;;;;;;;13.78;100.00;100643.41;5074337;28;20028;-71
2023/05/06 04:08:32;;;;;;;11.77;9.40;;;;;;;13.82;100.00;100644.72;5069192;28;20036;-71
2023/05/06 04:11:03;;;;;;;15.55;9.57;;;;;;;13.87;100.00;100641.63;5071409;28;20017;-71
2023/05/06 04:13:31;;;;;;;10.20;9.10;;;;;;;13.91;100.00;100648.19;5047142;28;21250;-71
2023/05/06 04:15:57;;;;;;;10.32;8.85;;;;;;;13.90;100.00;100641.31;5071663;28;20101;-70
2023/05/06 04:18:23;;;;;;;11.07;8.63;;;;;;;13.88;100.00;100648.50;5072951;28;20439;-70
2023/05/06 04:20:49;;;;;;;11.15;9.02;;;;;;;13.86;100.00;100645.22;5070446;28;20456;-71
2023/05/06 04:23:15;;;;;;;10.82;9.30;;;;;;;13.84;100.00;100645.38;5069664;28;20028;-71
2023/05/06 04:25:41;;;;;;;11.18;8.93;;;;;;;13.78;100.00;100643.41;5069651;28;20036;-71
2023/05/06 04:28:10;;;;;;;10.50;9.40;;;;;;;13.80;100.00;100651.09;5068780;28;20341;-71
2023/05/06 04:30:36;;;;;;;13.32;9.65;;;;;;;13.78;100.00;100655.69;5068514;28;20028;-71
2023/05/06 04:33:02;;;;;;;10.27;9.27;;;;;;;13.79;100.00;100647.66;5071935;28;20484;-70
2023/05/06 04:35:28;;;;;;;11.02;9.93;;;;;;;13.83;100.00;100650.78;5071744;28;20048;-71
2023/05/06 04:37:55;;;;;;;14.07;9.98;;;;;;;13.97;100.00;100650.16;5074180;28;20055;-71
2023/05/06 04:40:22;;;;;;;11.68;10.43;;;;;;;14.04;100.00;100656.38;5069479;28;20123;-71
2023/05/06 04:42:48;;;;;;;10.52;9.45;;;;;;;14.08;100.00;100657.72;5049546;28;20032;-71
2023/05/06 04:45:14;;;;;;;10.45;9.35;;;;;;;14.13;100.00;100657.22;5068017;28;20059;-71
2023/05/06 04:47:40;;;;;;;10.82;9.70;;;;;;;14.19;100.00;100662.59;5069756;28;20034;-71
2023/05/06 04:50:07;;;;;;;8.90;7.93;;;;;;;14.19;100.00;100667.03;5051548;28;20071;-71
2023/05/06 04:52:33;;;;;;;11.70;8.90;;;;;;;14.15;100.00;100669.19;5067750;28;20129;-72
2023/05/06 04:54:59;;;;;;;9.82;8.57;;;;;;;13.95;100.00;100670.44;5066451;28;20028;-71
2023/05/06 04:57:25;;;;;;;8.93;7.93;;;;;;;13.75;100.00;100679.56;5063756;28;20028;-71
2023/05/06 04:59:51;;;;;;;10.32;7.75;;;;;;;13.72;100.00;100679.88;5071374;28;20071;-71
2023/05/06 05:02:17;;;;;;;13.48;7.80;;;;;;;13.72;100.00;100685.94;5063788;28;20059;-71
2023/05/06 05:04:43;;;;;;;12.63;8.63;;;;;;;13.76;100.00;100681.19;5069176;28;20036;-71
2023/05/06 05:07:09;;;;;;;10.98;7.63;;;;;;;13.80;100.00;100683.34;5067469;28;20085;-71
2023/05/06 05:09:35;;;;;;;7.80;7.00;;;;;;;13.82;100.00;100683.19;5063995;28;20112;-71
2023/05/06 05:12:03;;;;;;;10.93;8.38;;;;;;;13.93;100.00;100681.09;5066551;28;20079;-71
2023/05/06 05:14:29;;;;;;;9.80;8.68;;;;;;;13.97;100.00;100684.22;5063662;28;20047;-71
2023/05/06 05:16:57;;;;;;;11.60;8.48;;;;;;;14.02;100.00;100676.69;5063780;28;20036;-71
2023/05/06 05:19:23;;;;;;;11.70;8.07;;;;;;;14.11;100.00;100680.97;5060907;28;20052;-71
2023/05/06 05:21:49;;;;;;;10.55;8.30;;;;;;;14.15;100.00;100676.22;5068144;28;20029;-71
2023/05/06 05:24:15;;;;;;;10.93;8.15;;;;;;;14.21;100.00;100676.34;5062856;28;20369;-71
2023/05/06 05:26:41;;;;;;;8.55;7.72;;;;;;;14.28;100.00;100674.72;5049040;28;20191;-71
2023/05/06 05:29:06;;;;;;;15.05;8.23;;;;;;;14.35;100.00;100679.31;5063418;28;20035;-71
2023/05/06 05:31:32;;;;;;;13.23;8.68;;;;;;;14.41;100.00;100669.03;5057459;28;20029;-71
2023/05/06 05:33:58;;;;;;;10.10;8.00;;;;;;;14.52;100.00;100670.50;5060587;28;20516;-71
2023/05/06 05:36:25;;;;;;;9.40;8.35;;;;;;;14.64;100.00;100669.19;5038001;28;20036;-71
2023/05/06 05:38:50;;;;;;;9.75;7.90;;;;;;;14.78;100.00;100668.50;5064782;28;20025;-72
2023/05/06 05:41:16;;;;;;;8.70;7.90;;;;;;;14.94;100.00;100671.09;5061376;28;20072;-71
2023/05/06 05:43:42;;;;;;;9.98;8.10;;;;;;;14.98;100.00;100668.97;5060896;28;20036;-70
2023/05/06 05:46:07;;;;;;;10.70;7.32;;;;;;;15.09;100.00;100675.66;5064795;28;20029;-71
2023/05/06 05:48:33;;;;;;;9.30;8.10;;;;;;;15.16;100.00;100681.84;5069517;28;20146;-71
2023/05/06 05:51:01;;;;;;;11.40;7.45;;;;;;;15.20;100.00;100677.91;5074761;28;20033;-71
2023/05/06 05:53:28;;;;;;;9.52;8.20;;;;;;;15.23;100.00;100680.19;5069523;28;20055;-71
2023/05/06 05:55:53;;;;;;;10.32;7.38;;;;;;;15.35;100.00;100681.47;5069153;28;20048;-72
2023/05/06 05:58:19;;;;;;;8.43;7.55;;;;;;;15.52;100.00;100682.22;5076350;28;20024;-71
2023/05/06 06:00:45;;;;;;;8.52;7.72;;;;;;;15.56;100.00;100679.09;5072037;28;20043;-71
2023/05/06 06:03:10;;;;;;;8.13;7.28;;;;;;;15.54;100.00;100683.69;5073014;28;20044;-71
2023/05/06 06:05:36;;;;;;;9.85;7.72;;;;;;;15.63;100.00;100684.47;5074692;28;20032;-71
2023/05/06 06:08:02;;;;;;;10.98;7.55;;;;;;;15.78;100.00;100682.75;5069891;28;20388;-71
2023/05/06 06:10:27;;;;;;;10.50;7.20;;;;;;;15.99;100.00;100681.31;5072525;28;20032;-71
2023/05/06 06:12:52;;;;;;;10.52;8.55;;;;;;;16.15;100.00;100684.63;5073032;28;20569;-71
2023/05/06 06:15:18;;;;;;;8.25;7.30;;;;;;;16.24;100.00;100694.09;5074256;28;20064;-71
2023/05/06 06:17:44;;;;;;;15.27;7.13;;;;;;;16.34;100.00;100687.78;5072600;28;20040;-71
2023/05/06 06:20:10;;;;;;;8.75;6.63;;;;;;;16.38;100.00;100686.44;5068580;28;20394;-71
2023/05/06 06:22:35;;;;;;;9.77;6.72;;;;;;;16.42;100.00;100691.19;5072553;28;20040;-71
2023/05/06 06:25:01;;;;;;;8.07;7.20;;;;;;;16.61;100.00;100689.84;5067482;28;20042;-71
2023/05/06 06:27:26;;;;;;;9.00;6.85;;;;;;;16.83;99.75;100693.47;5052717;28;20040;-71
2023/05/06 06:29:51;;;;;;;8.02;6.82;;;;;;;17.00;98.95;100689.69;5071428;28;20028;-72
2023/05/06 06:32:17;;;;;;;7.68;6.18;;;;;;;17.15;97.54;100687.84;5070933;28;20112;-71
2023/05/06 06:34:42;;;;;;;7.13;6.45;;;;;;;17.23;96.03;100692.22;5070134;28;20401;-71
2023/05/06 06:37:11;;;;;;;6.15;5.53;;;;;;;17.41;96.20;100687.41;5072979;28;20048;-71
2023/05/06 06:39:36;;;;;;;9.93;6.72;;;;;;;17.47;96.04;100685.84;5068519;28;20093;-70
2023/05/06 06:42:05;;;;;;;7.32;5.93;;;;;;;17.59;95.00;100679.91;5068318;28;20443;-69
2023/05/06 06:44:32;;;;;;;10.52;6.35;;;;;;;17.72;94.43;100676.63;5069364;28;20039;-70
2023/05/06 06:46:58;;;;;;;7.05;5.57;;;;;;;17.90;93.63;100673.59;5062762;28;20708;-69
2023/05/06 06:49:23;;;;;;;8.18;5.80;;;;;;;18.01;92.72;100680.97;5061260;28;20119;-70
2023/05/06 06:51:50;;;;;;;7.07;5.40;;;;;;;18.01;92.58;100678.34;5060204;28;20082;-71
2023/05/06 06:54:16;;;;;;;6.05;5.30;;;;;;;18.07;92.46;100676.78;5064439;28;20624;-71
2023/05/06 06:56:41;;;;;;;6.10;4.88;;;;;;;18.14;92.62;100673.22;5066273;28;20045;-71
2023/05/06 06:59:07;;;;;;;6.57;5.95;;;;;;;18.23;92.75;100677.34;5070698;28;20036;-72
2023/05/06 07:01:32;;;;;;;8.75;5.72;;;;;;;18.30;91.79;100681.88;5062086;28;20043;-72
2023/05/06 07:03:58;;;;;;;6.18;5.57;;;;;;;18.38;91.68;100676.47;5065894;28;20078;-72
2023/05/06 07:06:23;;;;;;;8.10;5.32;;;;;;;18.37;91.50;100677.47;5068230;28;20027;-72
2023/05/06 07:08:49;;;;;;;5.05;4.65;;;;;;;18.52;91.68;100678.19;5067255;28;20028;-72
2023/05/06 07:11:14;;;;;;;10.27;5.65;;;;;;;18.56;91.15;100679.44;5060087;28;20372;-72
2023/05/06 07:13:40;;;;;;;9.23;6.35;;;;;;;18.68;91.76;100680.59;5061425;28;20556;-71
2023/05/06 07:16:06;;;;;;;11.07;5.28;;;;;;;18.71;92.48;100676.75;5067577;28;20029;-72
2023/05/06 07:18:31;;;;;;;6.57;5.40;;;;;;;18.74;92.15;100674.53;5061124;28;20461;-72
2023/05/06 07:20:57;;;;;;;5.20;4.80;;;;;;;18.88;91.01;100675.47;5070466;28;20041;-72
2023/05/06 07:23:22;;;;;;;5.68;5.10;;;;;;;19.07;89.83;100671.28;5065710;28;20032;-71
2023/05/06 07:25:48;;;;;;;5.72;4.65;;;;;;;19.18;89.20;100670.75;5071263;28;20403;-72
2023/05/06 07:28:14;;;;;;;5.32;4.80;;;;;;;19.35;88.87;100671.22;5066864;28;20040;-72
2023/05/06 07:30:40;;;;;;;6.53;4.60;;;;;;;19.63;88.58;100668.50;5068927;28;20107;-73
2023/05/06 07:33:06;;;;;;;8.10;4.70;;;;;;;19.74;87.72;100666.09;5073321;28;20032;-73
2023/05/06 07:35:32;;;;;;;5.25;4.80;;;;;;;19.71;88.09;100665.69;5044910;28;20028;-72
2023/05/06 07:37:58;;;;;;;8.20;4.97;;;;;;;19.68;88.89;100666.09;5069923;28;20399;-72
2023/05/06 07:40:23;;;;;;;9.10;5.20;;;;;;;19.74;89.93;100673.22;5070798;28;20028;-71
2023/05/06 07:42:49;;;;;;;6.60;5.22;;;;;;;19.76;89.01;100671.19;5069206;28;20024;-71
2023/05/06 07:45:14;;;;;;;7.10;4.45;;;;;;;19.92;89.19;100667.34;5067405;28;20428;-73
2023/05/06 07:47:40;;;;;;;6.22;4.85;;;;;;;20.27;88.20;100668.03;5066163;28;20135;-72
2023/05/06 07:50:07;;;;;;;5.75;5.15;;;;;;;20.44;85.92;100667.44;5070173;28;20032;-72
2023/05/06 07:52:32;;;;;;;6.75;5.63;;;;;;;20.60;86.18;100671.50;5066869;28;20368;-71
2023/05/06 07:54:58;;;;;;;8.63;5.65;;;;;;;20.69;85.67;100674.75;5061442;28;20031;-72
2023/05/06 07:57:23;;;;;;;5.13;4.20;;;;;;;20.82;85.15;100672.88;5068422;28;20036;-72
2023/05/06 07:59:50;;;;;;;7.60;4.88;;;;;;;20.95;84.59;100680.00;5059457;28;20097;-71
2023/05/06 08:02:16;;;;;;;5.85;5.13;;;;;;;20.77;84.33;100671.91;5063604;28;20050;-73
2023/05/06 08:04:41;;;;;;;5.50;5.00;;;;;;;20.74;84.84;100677.59;5061840;28;20473;-72
2023/05/06 08:07:07;;;;;;;7.07;5.60;;;;;;;20.92;85.24;100682.25;5066590;28;20039;-72
2023/05/06 08:09:32;;;;;;;6.53;5.53;;;;;;;21.01;83.52;100676.53;5064659;28;20032;-71
2023/05/06 08:11:58;;;;;;;7.78;5.35;;;;;;;21.13;82.67;100674.88;5066158;28;20480;-71
2023/05/06 08:14:27;;;;;;;6.18;5.57;;;;;;;21.08;82.42;100674.66;5064158;28;20036;-71
2023/05/06 08:16:53;;;;;;;5.43;4.93;;;;;;;21.09;83.37;100686.91;5066754;28;20045;-72
2023/05/06 08:19:18;;;;;;;6.50;5.53;;;;;;;21.17;83.16;100680.56;5067959;28;20028;-72
2023/05/06 08:21:44;;;;;;;7.78;4.80;;;;;;;21.32;83.30;100678.47;5068057;28;20119;-72
2023/05/06 08:24:09;;;;;;;7.85;5.72;;;;;;;21.22;83.28;100686.09;5063751;28;20043;-72
2023/05/06 08:26:35;;;;;;;5.72;5.15;;;;;;;21.34;85.46;100683.56;5060270;28;20480;-72
2023/05/06 08:29:02;;;;;;;5.85;5.15;;;;;;;21.64;83.08;100686.53;5065790;28;20043;-72
2023/05/06 08:31:27;;;;;;;6.00;5.50;;;;;;;21.69;83.07;100681.41;5065630;28;20025;-72
2023/05/06 08:33:53;;;;;;;7.13;5.20;;;;;;;21.82;82.06;100678.66;5066533;28;20495;-72
2023/05/06 08:36:18;;;;;;;6.82;5.10;;;;;;;21.85;81.96;100673.72;5065602;28;20028;-71
2023/05/06 08:38:49;;;;;;;7.03;5.70;;;;;;;21.79;82.48;100677.25;5059236;28;20043;-71
2023/05/06 08:41:17;;;;;;;6.00;5.40;;;;;;;21.44;82.52;100674.16;5068464;28;20514;-71
2023/05/06 08:43:45;;;;;;;9.18;5.95;;;;;;;21.22;82.17;100675.47;5038843;28;20037;-73
2023/05/06 08:46:12;;;;;;;7.35;5.10;;;;;;;21.39;81.79;100671.31;5065168;28;20036;-71
2023/05/06 08:48:37;;;;;;;6.70;6.05;;;;;;;21.48;82.18;100671.91;5069650;28;20024;-72
2023/05/06 08:51:03;;;;;;;6.38;5.10;;;;;;;21.57;81.62;100675.94;5062799;28;20055;-71
2023/05/06 08:53:30;;;;;;;7.55;4.65;;;;;;;21.73;81.78;100672.81;5064667;28;20119;-72
2023/05/06 08:56:05;;;;;;;7.90;5.47;;;;;;;21.75;79.71;100675.22;5065826;28;20045;-72
2023/05/06 08:58:37;;;;;;;6.95;5.32;;;;;;;21.64;81.35;100673.25;5064199;28;20047;-72
2023/05/06 09:01:03;;;;;;;5.82;5.22;;;;;;;21.66;82.25;100673.88;5062668;28;20040;-71
2023/05/06 09:03:29;;;;;;;9.20;5.45;;;;;;;21.62;81.85;100672.66;5063210;28;20549;-72
2023/05/06 09:05:56;;;;;;;9.27;5.57;;;;;;;21.63;81.60;100674.28;5068046;28;20032;-71
2023/05/06 09:08:21;;;;;;;7.28;5.53;;;;;;;21.70;81.76;100681.19;5061651;28;20063;-70
2023/05/06 09:10:47;;;;;;;6.78;6.03;;;;;;;21.75;81.73;100673.38;5063380;28;20056;-70
2023/05/06 09:13:14;;;;;;;6.22;5.53;;;;;;;21.74;80.38;100673.63;5068053;28;20028;-70
2023/05/06 09:15:47;;;;;;;5.78;5.07;;;;;;;21.68;80.26;100677.13;5065265;28;20063;-72
2023/05/06 09:18:13;;;;;;;5.72;4.80;;;;;;;21.78;81.28;100674.78;5066937;28;20042;-71
2023/05/06 09:20:45;;;;;;;6.47;5.10;;;;;;;21.79;81.10;100674.59;5074822;28;20135;-71
2023/05/06 09:23:12;;;;;;;8.90;6.18;;;;;;;21.67;81.94;100671.00;5067141;28;20032;-74
2023/05/06 09:25:38;;;;;;;6.40;5.05;;;;;;;21.55;81.62;100679.81;5061832;28;20029;-71
2023/05/06 09:28:05;;;;;;;7.30;4.80;;;;;;;21.49;82.05;100682.28;5071827;28;20036;-71
2023/05/06 09:30:30;;;;;;;11.55;6.13;;;;;;;21.44;82.21;100668.84;5069888;28;20032;-72
2023/05/06 09:32:56;;;;;;;5.68;5.18;;;;;;;21.51;81.48;100669.66;5077703;28;20032;-71
2023/05/06 09:35:27;;;;;;;6.03;5.53;;;;;;;21.57;80.49;100672.47;5069114;28;20036;-72
2023/05/06 09:37:52;;;;;;;6.03;5.40;;;;;;;21.58;81.18;100671.44;5063005;28;20041;-71
2023/05/06 09:40:18;;;;;;;6.47;5.18;;;;;;;21.42;81.27;100676.22;5063201;28;20024;-71
2023/05/06 09:42:44;;;;;;;6.95;4.75;;;;;;;21.27;81.63;100673.00;5074634;28;20028;-72
2023/05/06 09:45:09;;;;;;;5.97;4.82;;;;;;;21.41;82.40;100677.22;5063157;28;20031;-71
2023/05/06 09:47:35;;;;;;;6.45;5.75;;;;;;;21.61;81.34;100668.38;5057699;28;20036;-71
2023/05/06 09:50:02;;;;;;;6.82;5.45;;;;;;;21.52;80.51;100676.56;5071162;28;20184;-71
2023/05/06 09:52:28;;;;;;;5.97;4.55;;;;;;;21.50;81.35;100665.38;5056143;28;20464;-70
2023/05/06 09:54:54;;;;;;;6.47;5.88;;;;;;;21.48;81.11;100675.38;5070416;28;20028;-71
2023/05/06 09:57:21;;;;;;;8.10;6.72;;;;;;;21.45;78.97;100669.66;5072376;28;20679;-71
2023/05/06 09:59:47;;;;;;;5.25;4.75;;;;;;;21.45;78.53;100665.19;5070534;28;20032;-71
2023/05/06 10:02:13;;;;;;;4.93;4.53;;;;;;;21.58;79.21;100663.50;5072084;28;20902;-71
2023/05/06 10:04:42;;;;;;;6.05;5.32;;;;;;;21.59;78.02;100675.72;5073467;28;20366;-71
2023/05/06 10:07:11;;;;;;;5.82;5.32;;;;;;;21.52;77.51;100663.31;5071057;28;20031;-71
2023/05/06 10:09:37;;;;;;;6.28;5.60;;;;;;;21.56;77.80;100668.19;5071187;28;20041;-69
2023/05/06 10:12:03;;;;;;;6.18;5.20;;;;;;;21.54;79.03;100663.09;5068397;28;20448;-72
2023/05/06 10:14:29;;;;;;;6.22;5.50;;;;;;;21.55;79.23;100658.63;5067608;28;20048;-72
2023/05/06 10:16:55;;;;;;;10.15;5.50;;;;;;;21.74;77.98;100655.84;5064519;28;20033;-72
2023/05/06 10:19:23;;;;;;;5.10;4.60;;;;;;;21.98;78.19;100643.66;5064492;28;20117;-72
2023/05/06 10:22:00;;;;;;;5.85;5.35;;;;;;;22.11;78.01;100648.91;5072816;28;20025;-72
2023/05/06 10:24:32;;;;;;;7.30;5.50;;;;;;;22.02;76.80;100644.09;5071514;28;20036;-72
2023/05/06 10:27:02;;;;;;;7.05;5.35;;;;;;;21.84;77.26;100637.63;5072761;28;20417;-72
2023/05/06 10:29:28;;;;;;;7.50;4.35;;;;;;;21.66;77.97;100629.59;5053650;28;20032;-71
2023/05/06 10:31:56;;;;;;;5.43;4.55;;;;;;;21.92;79.24;100628.59;5071488;28;20029;-72
2023/05/06 10:34:23;;;;;;;6.78;4.65;;;;;;;22.18;77.04;100627.63;5065565;28;20032;-72
2023/05/06 10:36:52;;;;;;;5.32;4.85;;;;;;;22.31;75.86;100621.38;5065597;28;20035;-71
2023/05/06 10:39:19;;;;;;;5.80;4.88;;;;;;;22.43;76.03;100619.66;5071572;28;20047;-73
2023/05/06 10:41:45;;;;;;;4.82;4.00;;;;;;;22.33;75.94;100625.44;5072418;28;20037;-71
2023/05/06 10:44:11;;;;;;;5.93;4.30;;;;;;;22.37;75.75;100628.47;5071668;28;20129;-71
2023/05/06 10:46:58;;;;;;;5.47;4.90;;;;;;;22.44;74.94;100618.63;5070591;28;20058;-72
2023/05/06 10:49:24;;;;;;;7.95;4.57;;;;;;;22.33;74.72;100614.84;5063772;28;20123;-72
2023/05/06 10:52:10;;;;;;;6.32;4.32;;;;;;;22.31;75.18;100616.88;5072165;28;20124;-72
2023/05/06 10:54:50;;;;;;;5.15;4.05;;;;;;;22.57;74.28;100612.38;5070660;28;20419;-73
2023/05/06 10:57:15;;;;;;;6.07;5.05;;;;;;;22.65;73.59;100618.22;5053003;28;20404;-73
2023/05/06 10:59:45;;;;;;;6.07;4.93;;;;;;;22.66;75.09;100614.53;5075724;28;20102;-72
2023/05/06 11:02:12;;;;;;;7.97;4.65;;;;;;;22.87;73.24;100604.53;5070405;28;20056;-72
2023/05/06 11:04:38;;;;;;;4.43;3.72;;;;;;;22.95;72.49;100607.69;5068120;28;20039;-73
2023/05/06 11:07:15;;;;;;;5.68;4.05;;;;;;;22.91;72.60;100605.72;5071861;28;20041;-72
2023/05/06 11:10:00;;;;;;;5.93;4.03;;;;;;;23.02;72.08;100608.44;5071996;28;20031;-72
2023/05/06 11:12:50;;;;;;;5.38;4.15;;;;;;;23.11;71.97;100607.09;5065294;28;20468;-71
2023/05/06 11:15:41;;;;;;;6.38;3.60;;;;;;;22.98;74.00;100611.75;5057582;28;20041;-72
2023/05/06 11:18:26;;;;;;;5.20;4.30;;;;;;;22.98;72.41;100614.41;5070928;28;20037;-73